createdAt,value
2022-08-03T00:00:33.736Z,51.63
2022-08-03T00:03:03.198Z,51.33
2022-08-03T00:05:33.068Z,51.17
2022-08-03T00:08:01.352Z,50.89
2022-08-03T00:10:29.760Z,51.09
2022-08-03T00:12:57.639Z,51.24
2022-08-03T00:15:25.857Z,50.64
2022-08-03T00:17:54.172Z,50.76
2022-08-03T00:20:23.656Z,50.20
2022-08-03T00:22:51.824Z,50.63
2022-08-03T00:25:19.732Z,50.91
2022-08-03T00:27:48.482Z,50.67
2022-08-03T00:30:18.780Z,50.68
2022-08-03T00:32:47.712Z,50.82
2022-08-03T00:35:36.496Z,50.37
2022-08-03T00:38:05.607Z,50.23
2022-08-03T00:40:33.768Z,50.97
2022-08-03T00:43:02.387Z,51.27
2022-08-03T00:45:32.279Z,51.10
2022-08-03T00:48:00.563Z,51.55
2022-08-03T00:50:30.821Z,51.53
2022-08-03T00:53:00.894Z,51.25
2022-08-03T00:55:30.269Z,51.65
2022-08-03T00:57:59.625Z,51.61
2022-08-03T01:00:29.016Z,51.72
2022-08-03T01:02:56.902Z,51.96
2022-08-03T01:05:25.219Z,52.21
2022-08-03T01:08:04.550Z,52.41
2022-08-03T01:10:41.135Z,52.19
2022-08-03T01:14:01.661Z,52.41
2022-08-03T01:16:17.021Z,52.21
2022-08-03T01:19:03.566Z,52.11
2022-08-03T01:21:35.466Z,52.04
2022-08-03T01:24:31.708Z,52.20
2022-08-03T01:27:10.324Z,52.55
2022-08-03T01:29:58.254Z,52.05
2022-08-03T01:32:58.714Z,52.02
2022-08-03T01:35:27.037Z,52.07
2022-08-03T01:37:58.966Z,52.19
2022-08-03T01:40:29.433Z,52.10
2022-08-03T01:43:00.732Z,52.11
2022-08-03T01:45:34.221Z,52.01
2022-08-03T01:48:04.155Z,51.71
2022-08-03T01:50:34.351Z,51.32
2022-08-03T01:53:03.576Z,51.16
2022-08-03T01:55:34.298Z,51.23
2022-08-03T01:58:05.351Z,51.43
2022-08-03T02:00:38.321Z,51.41
2022-08-03T02:03:08.026Z,51.77
2022-08-03T02:05:37.554Z,52.21
2022-08-03T02:08:09.019Z,51.79
2022-08-03T02:10:38.668Z,51.66
2022-08-03T02:13:09.834Z,51.46
2022-08-03T02:15:40.215Z,51.63
2022-08-03T02:18:11.024Z,51.38
2022-08-03T02:20:40.324Z,51.38
2022-08-03T02:23:08.833Z,50.96
2022-08-03T02:25:42.829Z,51.11
2022-08-03T02:28:14.796Z,50.90
2022-08-03T02:30:53.787Z,51.17
2022-08-03T02:33:28.223Z,51.32
2022-08-03T02:35:57.812Z,51.39
2022-08-03T02:38:32.249Z,51.27
2022-08-03T02:41:02.653Z,51.61
2022-08-03T02:43:41.276Z,52.07
2022-08-03T02:46:26.745Z,52.72
2022-08-03T02:48:56.989Z,52.82
2022-08-03T02:51:25.757Z,53.27
2022-08-03T02:53:55.509Z,53.18
2022-08-03T02:56:25.396Z,53.30
2022-08-03T02:58:54.492Z,53.17
2022-08-03T03:01:25.659Z,52.69
2022-08-03T03:03:56.463Z,52.84
2022-08-03T03:06:26.774Z,52.35
2022-08-03T03:08:59.918Z,53.09
2022-08-03T03:11:29.074Z,52.94
2022-08-03T03:13:58.425Z,52.74
2022-08-03T03:16:30.983Z,53.01
2022-08-03T03:19:00.121Z,53.34
2022-08-03T03:21:28.860Z,53.18
2022-08-03T03:23:57.429Z,53.17
2022-08-03T03:26:25.315Z,53.25
2022-08-03T03:28:53.541Z,52.92
2022-08-03T03:31:21.321Z,53.19
2022-08-03T03:33:51.027Z,53.35
2022-08-03T03:36:19.574Z,54.04
2022-08-03T03:38:47.661Z,54.20
2022-08-03T03:41:15.653Z,53.94
2022-08-03T03:43:44.149Z,54.07
2022-08-03T03:46:13.910Z,54.47
2022-08-03T03:48:42.073Z,54.63
2022-08-03T03:51:11.803Z,54.32
2022-08-03T03:53:39.802Z,54.77
2022-08-03T03:56:07.877Z,54.56
2022-08-03T03:58:35.706Z,54.57
2022-08-03T04:01:03.652Z,54.45
2022-08-03T04:03:31.848Z,54.64
2022-08-03T04:06:17.791Z,55.45
2022-08-03T04:09:05.213Z,55.41
2022-08-03T04:11:38.767Z,55.20
2022-08-03T04:15:58.744Z,55.01
2022-08-03T04:18:29.730Z,55.07
2022-08-03T04:21:03.949Z,55.47
2022-08-03T04:23:35.311Z,55.33
2022-08-03T04:26:04.389Z,55.85
2022-08-03T04:29:32.338Z,56.10
2022-08-03T04:32:03.181Z,56.50
2022-08-03T04:34:31.838Z,56.39
2022-08-03T04:37:01.959Z,55.74
2022-08-03T04:39:32.963Z,56.59
2022-08-03T04:42:08.111Z,56.39
2022-08-03T04:44:47.927Z,56.46
2022-08-03T04:47:16.537Z,56.34
2022-08-03T04:49:45.149Z,57.56
2022-08-03T04:52:13.490Z,57.08
2022-08-03T04:54:42.514Z,56.16
2022-08-03T04:57:23.231Z,56.23
2022-08-03T05:00:02.663Z,55.85
2022-08-03T05:02:32.220Z,56.77
2022-08-03T05:05:00.835Z,56.58
2022-08-03T05:07:35.674Z,56.04
2022-08-03T05:10:06.866Z,55.38
2022-08-03T05:12:43.542Z,55.90
2022-08-03T05:15:15.735Z,55.07
2022-08-03T05:17:43.558Z,54.87
2022-08-03T05:20:12.855Z,54.65
2022-08-03T05:22:41.211Z,54.59
2022-08-03T05:25:09.396Z,54.60
2022-08-03T05:27:45.355Z,54.71
2022-08-03T05:30:31.532Z,54.69
2022-08-03T05:33:03.724Z,53.81
2022-08-03T05:35:55.819Z,53.85
2022-08-03T05:38:24.092Z,54.26
2022-08-03T05:41:23.452Z,54.57
2022-08-03T05:43:45.507Z,54.04
2022-08-03T05:46:14.647Z,54.17
2022-08-03T05:48:42.629Z,54.26
2022-08-03T05:51:12.495Z,53.94
2022-08-03T05:53:41.695Z,54.09
2022-08-03T05:56:13.563Z,54.51
2022-08-03T05:58:45.142Z,53.74
2022-08-03T06:01:14.804Z,52.72
2022-08-03T06:03:42.793Z,51.53
2022-08-03T06:06:11.752Z,51.57
2022-08-03T06:08:39.704Z,49.81
2022-08-03T06:11:07.730Z,51.68
2022-08-03T06:13:35.607Z,51.11
2022-08-03T06:16:03.992Z,51.13
2022-08-03T06:18:33.345Z,50.48
2022-08-03T06:21:14.582Z,50.08
2022-08-03T06:23:54.095Z,49.80
2022-08-03T06:26:27.855Z,49.72
2022-08-03T06:28:57.264Z,48.14
2022-08-03T06:31:32.860Z,47.71
2022-08-03T06:34:34.351Z,47.67
2022-08-03T06:36:58.509Z,48.20
2022-08-03T06:39:30.076Z,46.59
2022-08-03T06:41:58.097Z,45.96
2022-08-03T06:44:26.410Z,45.84
2022-08-03T06:46:54.227Z,45.39
2022-08-03T06:49:23.693Z,44.66
2022-08-03T06:52:04.224Z,44.38
2022-08-03T06:54:35.634Z,44.79
2022-08-03T06:57:03.767Z,43.90
2022-08-03T07:00:08.178Z,42.55
2022-08-03T07:02:20.386Z,42.51
2022-08-03T07:04:50.034Z,41.63
2022-08-03T07:07:19.459Z,41.00
2022-08-03T07:09:56.962Z,40.14
2022-08-03T07:12:26.384Z,40.11
2022-08-03T07:14:58.184Z,39.82
2022-08-03T07:17:30.829Z,39.48
2022-08-03T07:20:00.839Z,39.07
2022-08-03T07:22:29.437Z,39.57
2022-08-03T07:24:57.852Z,38.75
2022-08-03T07:27:28.509Z,37.88
2022-08-03T07:29:56.642Z,37.66
2022-08-03T07:32:25.285Z,37.96
2022-08-03T07:34:57.098Z,36.37
2022-08-03T07:37:29.622Z,36.74
2022-08-03T07:39:57.945Z,36.33
2022-08-03T07:42:25.798Z,36.26
2022-08-03T07:44:53.680Z,35.47
2022-08-03T07:47:22.539Z,35.45
2022-08-03T07:49:50.865Z,36.90
2022-08-03T07:52:36.567Z,34.96
2022-08-03T07:55:07.548Z,35.41
2022-08-03T07:57:36.026Z,34.36
2022-08-03T08:00:07.146Z,33.35
2022-08-03T08:02:35.000Z,33.67
2022-08-03T08:05:05.698Z,31.90
2022-08-03T08:07:35.508Z,31.91
2022-08-03T08:10:03.425Z,29.57
2022-08-03T08:12:32.619Z,26.61
2022-08-03T08:15:00.767Z,25.28
2022-08-03T08:17:29.062Z,22.30
2022-08-03T08:19:58.009Z,21.03
2022-08-03T08:22:30.542Z,19.69
2022-08-03T08:25:01.366Z,19.66
2022-08-03T08:28:30.317Z,18.25
2022-08-03T08:30:21.815Z,17.22
2022-08-03T08:32:50.182Z,16.44
2022-08-03T08:35:19.777Z,15.81
2022-08-03T08:37:50.996Z,14.67
2022-08-03T08:40:22.215Z,14.29
2022-08-03T08:42:59.043Z,13.36
2022-08-03T08:45:28.743Z,14.21
2022-08-03T08:48:03.525Z,13.25
2022-08-03T08:50:35.204Z,12.22
2022-08-03T08:53:04.331Z,11.58
2022-08-03T08:55:57.817Z,11.22
2022-08-03T08:58:23.540Z,10.89
2022-08-03T09:00:52.988Z,10.96
2022-08-03T09:03:29.406Z,10.40
2022-08-03T09:06:01.156Z,10.29
2022-08-03T09:08:30.269Z,9.87
2022-08-03T09:10:58.199Z,10.14
2022-08-03T09:13:26.393Z,10.36
2022-08-03T09:16:17.124Z,10.87
2022-08-03T09:18:47.360Z,11.74
2022-08-03T09:21:31.685Z,10.74
2022-08-03T09:24:03.773Z,12.49
2022-08-03T09:26:35.761Z,11.15
2022-08-03T09:29:11.197Z,10.31
2022-08-03T09:31:46.719Z,11.14
2022-08-03T09:34:17.864Z,10.39
2022-08-03T09:36:47.076Z,11.25
2022-08-03T09:39:16.632Z,11.06
2022-08-03T09:41:46.022Z,11.43
2022-08-03T09:44:24.251Z,10.67
2022-08-03T09:46:55.126Z,11.71
2022-08-03T09:49:23.574Z,11.51
2022-08-03T09:52:33.932Z,11.50
2022-08-03T09:54:39.840Z,12.18
2022-08-03T09:57:07.826Z,12.50
2022-08-03T09:59:39.125Z,12.94
2022-08-03T10:02:22.940Z,12.92
2022-08-03T10:04:53.007Z,12.54
2022-08-03T10:07:22.457Z,12.91
2022-08-03T10:10:30.065Z,13.77
2022-08-03T10:12:48.790Z,14.04
2022-08-03T10:16:22.644Z,13.47
2022-08-03T10:18:06.647Z,13.64
2022-08-03T10:20:38.860Z,13.69
2022-08-03T10:23:09.142Z,14.81
2022-08-03T10:25:40.865Z,14.44
2022-08-03T10:28:10.815Z,13.62
2022-08-03T10:30:42.033Z,13.34
2022-08-03T10:33:50.075Z,12.78
2022-08-03T10:36:08.387Z,13.07
2022-08-03T10:38:39.775Z,13.08
2022-08-03T10:41:09.286Z,12.96
2022-08-03T10:43:57.671Z,13.04
2022-08-03T10:46:27.512Z,12.99
2022-08-03T10:48:58.183Z,13.17
2022-08-03T10:51:31.917Z,13.80
2022-08-03T10:54:02.192Z,13.72
2022-08-03T10:57:06.330Z,13.33
2022-08-03T11:00:04.147Z,12.20
2022-08-03T11:03:08.928Z,11.30
2022-08-03T11:05:43.531Z,11.32
2022-08-03T11:08:26.466Z,11.41
2022-08-03T11:10:55.986Z,11.79
2022-08-03T11:13:26.263Z,12.27
2022-08-03T11:16:00.160Z,12.67
2022-08-03T11:18:31.895Z,13.56
2022-08-03T11:21:01.844Z,14.20
2022-08-03T11:24:03.264Z,15.01
2022-08-03T11:26:34.193Z,14.41
2022-08-03T11:29:29.301Z,14.26
2022-08-03T11:31:57.413Z,13.53
2022-08-03T11:34:25.597Z,13.33
2022-08-03T11:37:27.220Z,13.14
2022-08-03T11:39:58.100Z,13.39
2022-08-03T11:42:57.297Z,14.18
2022-08-03T11:45:28.208Z,14.48
2022-08-03T11:51:01.122Z,15.01
2022-08-03T11:53:48.297Z,16.48
2022-08-03T11:56:29.860Z,17.63
2022-08-03T11:59:18.149Z,16.57
2022-08-03T12:01:54.626Z,16.77
2022-08-03T12:04:24.900Z,16.25
2022-08-03T12:07:09.636Z,15.51
2022-08-03T12:09:53.652Z,15.42
2022-08-03T12:12:31.085Z,15.56
2022-08-03T12:15:06.857Z,15.35
2022-08-03T12:17:43.790Z,14.25
2022-08-03T12:20:34.590Z,15.69
2022-08-03T12:23:07.853Z,15.04
2022-08-03T12:25:40.055Z,14.89
2022-08-03T12:28:28.206Z,14.24
2022-08-03T12:31:03.940Z,14.25
2022-08-03T12:33:31.938Z,14.88
2022-08-03T12:36:08.830Z,16.02
2022-08-03T12:38:39.534Z,15.37
2022-08-03T12:41:13.522Z,15.24
2022-08-03T12:43:49.313Z,15.15
2022-08-03T12:46:18.487Z,15.44
2022-08-03T12:49:04.949Z,14.91
2022-08-03T12:51:34.295Z,14.40
2022-08-03T12:54:03.261Z,14.52
2022-08-03T12:56:32.487Z,14.67
2022-08-03T12:59:01.908Z,14.40
2022-08-03T13:01:54.872Z,13.70
2022-08-03T13:04:31.687Z,14.03
2022-08-03T13:07:03.343Z,13.30
2022-08-03T13:09:33.328Z,12.15
2022-08-03T13:12:11.152Z,11.04
2022-08-03T13:14:39.532Z,10.37
2022-08-03T13:17:08.039Z,9.06
2022-08-03T13:19:36.529Z,8.74
2022-08-03T13:22:12.791Z,8.03
2022-08-03T13:24:41.324Z,8.95
2022-08-03T13:28:01.200Z,9.61
2022-08-03T13:29:59.675Z,10.43
2022-08-03T13:32:27.618Z,11.15
2022-08-03T13:34:55.432Z,11.82
2022-08-03T13:37:23.575Z,11.58
2022-08-03T13:39:58.893Z,11.00
2022-08-03T13:42:31.642Z,12.24
2022-08-03T13:44:59.858Z,12.75
2022-08-03T13:47:28.102Z,13.19
2022-08-03T13:50:01.646Z,13.21
2022-08-03T13:52:31.642Z,14.22
2022-08-03T13:55:00.218Z,14.16
2022-08-03T13:58:04.252Z,14.94
2022-08-03T14:00:27.680Z,15.80
2022-08-03T14:03:09.499Z,16.20
2022-08-03T14:05:41.041Z,16.14
2022-08-03T14:08:09.402Z,15.41
2022-08-03T14:10:39.462Z,15.63
2022-08-03T14:13:07.919Z,15.40
2022-08-03T14:15:37.682Z,16.16
2022-08-03T14:18:12.820Z,16.39
2022-08-03T14:20:48.616Z,16.28
2022-08-03T14:23:20.048Z,16.47
2022-08-03T14:25:51.447Z,16.65
2022-08-03T14:28:23.711Z,16.60
2022-08-03T14:30:54.064Z,16.66
2022-08-03T14:33:25.397Z,16.89
2022-08-03T14:35:53.865Z,16.78
2022-08-03T14:38:23.528Z,17.01
2022-08-03T14:40:53.178Z,17.10
2022-08-03T14:43:21.385Z,17.28
2022-08-03T14:45:52.322Z,17.47
2022-08-03T14:50:34.818Z,17.43
2022-08-03T14:51:10.250Z,17.13
2022-08-03T14:53:38.418Z,15.26
2022-08-03T14:56:10.342Z,13.76
2022-08-03T14:58:39.091Z,12.48
2022-08-03T15:02:02.364Z,11.70
2022-08-03T15:03:57.984Z,12.13
2022-08-03T15:06:25.868Z,12.73
2022-08-03T15:09:22.593Z,13.48
2022-08-03T15:11:42.258Z,14.57
2022-08-03T15:14:10.075Z,14.67
2022-08-03T15:16:41.339Z,14.84
2022-08-03T15:20:01.028Z,14.26
2022-08-03T15:22:01.052Z,13.69
2022-08-03T15:24:30.251Z,13.34
2022-08-03T15:26:58.085Z,12.47
2022-08-03T15:30:08.920Z,13.32
2022-08-03T15:32:14.136Z,14.09
2022-08-03T15:34:50.468Z,15.49
2022-08-03T15:37:19.277Z,16.79
2022-08-03T15:39:59.203Z,17.63
2022-08-03T15:42:29.115Z,17.69
2022-08-03T15:44:57.037Z,17.68
2022-08-03T15:47:25.171Z,18.78
2022-08-03T15:49:54.410Z,18.67
2022-08-03T15:52:22.312Z,19.53
2022-08-03T15:54:50.330Z,19.84
2022-08-03T15:57:18.697Z,20.47
2022-08-03T15:59:46.894Z,20.26
2022-08-03T16:02:14.849Z,19.95
2022-08-03T16:04:42.722Z,19.69
2022-08-03T16:07:12.892Z,20.05
2022-08-03T16:09:43.470Z,20.94
2022-08-03T16:12:16.416Z,20.19
2022-08-03T16:14:52.455Z,19.88
2022-08-03T16:17:21.935Z,20.95
2022-08-03T16:19:50.770Z,21.18
2022-08-03T16:22:23.047Z,19.91
2022-08-03T16:24:55.858Z,20.93
2022-08-03T16:28:00.340Z,20.38
2022-08-03T16:30:26.005Z,20.16
2022-08-03T16:33:00.174Z,20.85
2022-08-03T16:35:29.657Z,21.01
2022-08-03T16:38:07.832Z,21.41
2022-08-03T16:40:41.006Z,20.44
2022-08-03T16:43:27.065Z,20.57
2022-08-03T16:45:58.509Z,21.74
2022-08-03T16:48:36.587Z,21.15
2022-08-03T16:51:06.578Z,20.60
2022-08-03T16:54:05.366Z,21.91
2022-08-03T16:56:33.890Z,21.83
2022-08-03T16:59:05.640Z,21.11
2022-08-03T17:01:37.735Z,21.99
2022-08-03T17:04:06.066Z,23.04
2022-08-03T17:06:37.948Z,22.40
2022-08-03T17:09:15.874Z,22.57
2022-08-03T17:11:48.571Z,22.24
2022-08-03T17:14:21.860Z,22.95
2022-08-03T17:16:53.833Z,22.84
2022-08-03T17:19:25.492Z,22.54
2022-08-03T17:22:01.658Z,23.11
2022-08-03T17:24:41.441Z,23.35
2022-08-03T17:28:41.968Z,23.47
2022-08-03T17:30:09.476Z,23.78
2022-08-03T17:32:42.290Z,23.97
2022-08-03T17:35:12.277Z,23.11
2022-08-03T17:37:58.260Z,23.74
2022-08-03T17:40:33.094Z,24.42
2022-08-03T17:44:13.314Z,25.02
2022-08-03T17:45:52.837Z,25.23
2022-08-03T17:48:24.947Z,25.00
2022-08-03T17:50:56.681Z,25.44
2022-08-03T17:53:29.687Z,25.36
2022-08-03T17:56:45.170Z,25.10
2022-08-03T18:02:29.865Z,25.62
2022-08-03T18:05:16.603Z,26.17
2022-08-03T18:07:47.743Z,26.75
2022-08-03T18:10:22.203Z,26.57
2022-08-03T18:12:53.994Z,26.36
2022-08-03T18:15:28.633Z,26.26
2022-08-03T18:18:02.100Z,27.88
2022-08-03T18:20:41.076Z,27.32
2022-08-03T18:23:24.866Z,28.27
2022-08-03T18:26:00.199Z,27.88
2022-08-03T18:28:32.085Z,28.59
2022-08-03T18:31:05.571Z,30.36
2022-08-03T18:34:17.624Z,30.06
2022-08-03T18:36:29.690Z,30.19
2022-08-03T18:39:00.206Z,30.19
2022-08-03T18:41:32.246Z,30.55
2022-08-03T18:44:37.633Z,30.83
2022-08-03T18:47:24.017Z,31.13
2022-08-03T18:50:01.491Z,31.50
2022-08-03T18:52:37.305Z,32.34
2022-08-03T18:55:20.845Z,30.85
2022-08-03T18:58:00.995Z,31.04
2022-08-03T19:00:54.240Z,30.34
2022-08-03T19:03:25.695Z,30.57
2022-08-03T19:06:19.189Z,30.58
2022-08-03T19:08:53.252Z,31.19
2022-08-03T19:11:28.155Z,31.87
2022-08-03T19:14:00.903Z,31.39
2022-08-03T19:16:39.333Z,32.00
2022-08-03T19:19:14.485Z,32.39
2022-08-03T19:21:42.708Z,32.79
2022-08-03T19:24:10.646Z,33.23
2022-08-03T19:26:41.409Z,33.62
2022-08-03T19:29:15.018Z,33.27
2022-08-03T19:31:59.444Z,33.42
2022-08-03T19:34:29.311Z,35.49
2022-08-03T19:36:58.389Z,34.55
2022-08-03T19:39:27.026Z,33.29
2022-08-03T19:42:08.239Z,33.95
2022-08-03T19:44:42.038Z,32.30
2022-08-03T19:47:16.899Z,31.22
2022-08-03T19:50:04.826Z,31.22
2022-08-03T19:55:48.834Z,31.93
2022-08-03T19:58:28.355Z,31.29
2022-08-03T20:00:57.084Z,32.40
2022-08-03T20:03:27.947Z,32.95
2022-08-03T20:06:16.984Z,33.48
2022-08-03T20:08:45.194Z,32.26
2022-08-03T20:11:18.307Z,31.97
2022-08-03T20:13:49.861Z,32.28
2022-08-03T20:16:17.838Z,31.25
2022-08-03T20:18:45.782Z,31.42
2022-08-03T20:21:15.806Z,31.76
2022-08-03T20:24:03.188Z,31.99
2022-08-03T20:26:35.293Z,31.73
2022-08-03T20:29:09.157Z,31.58
2022-08-03T20:31:38.827Z,31.67
2022-08-03T20:34:07.323Z,31.51
2022-08-03T20:36:37.218Z,31.95
2022-08-03T20:39:07.625Z,32.78
2022-08-03T20:41:37.453Z,32.92
2022-08-03T20:44:05.747Z,32.73
2022-08-03T20:46:50.191Z,32.47
2022-08-03T20:49:23.603Z,32.67
2022-08-03T20:51:53.600Z,33.41
2022-08-03T20:54:31.259Z,33.13
2022-08-03T20:57:04.293Z,32.57
2022-08-03T20:59:50.287Z,33.27
2022-08-03T21:02:29.753Z,32.57
2022-08-03T21:05:03.443Z,32.63
2022-08-03T21:08:03.915Z,33.01
2022-08-03T21:10:31.338Z,33.33
2022-08-03T21:13:05.488Z,25.82
2022-08-03T21:13:16.204Z,33.94
2022-08-03T21:16:03.137Z,34.54
2022-08-03T21:18:43.545Z,34.69
2022-08-03T21:21:14.963Z,33.55
2022-08-03T21:23:49.175Z,34.54
2022-08-03T21:26:19.086Z,34.65
2022-08-03T21:28:49.670Z,34.54
2022-08-03T21:31:25.159Z,33.97
2022-08-03T21:33:55.146Z,34.23
2022-08-03T21:36:23.191Z,34.22
2022-08-03T21:38:56.597Z,34.04
2022-08-03T21:41:26.085Z,34.49
2022-08-03T21:43:55.651Z,33.97
2022-08-03T21:46:24.840Z,33.45
2022-08-03T21:48:56.777Z,33.52
2022-08-03T21:51:44.752Z,33.72
2022-08-03T21:54:14.436Z,34.31
2022-08-03T21:56:44.183Z,33.68
2022-08-03T21:59:18.225Z,34.71
2022-08-03T22:01:51.423Z,34.78
2022-08-03T22:04:50.975Z,34.14
2022-08-03T22:07:12.150Z,34.61
2022-08-03T22:09:51.321Z,34.68
2022-08-03T22:12:22.864Z,35.00
2022-08-03T22:15:00.401Z,34.91
2022-08-03T22:17:55.681Z,34.93
2022-08-03T22:20:19.898Z,34.68
2022-08-03T22:22:55.344Z,35.01
2022-08-03T22:25:30.035Z,36.25
2022-08-03T22:27:59.998Z,35.57
2022-08-03T22:30:29.619Z,35.60
2022-08-03T22:32:58.936Z,35.25
2022-08-03T22:35:28.106Z,35.45
2022-08-03T22:37:59.462Z,35.96
2022-08-03T22:40:27.834Z,35.61
2022-08-03T22:42:56.055Z,36.05
2022-08-03T22:46:07.617Z,35.75
2022-08-03T22:48:17.823Z,36.03
2022-08-03T22:50:47.124Z,36.43
2022-08-03T22:53:44.652Z,36.44
2022-08-03T22:56:13.198Z,37.33
2022-08-03T22:58:41.136Z,37.36
2022-08-03T23:01:12.518Z,37.55
2022-08-03T23:03:59.782Z,37.68
2022-08-03T23:06:34.421Z,37.68
2022-08-03T23:09:04.385Z,38.40
2022-08-03T23:11:36.564Z,38.12
2022-08-03T23:14:11.458Z,37.85
2022-08-03T23:16:40.947Z,37.84
2022-08-03T23:19:17.042Z,37.48
2022-08-03T23:22:02.351Z,37.91
2022-08-03T23:24:34.566Z,38.57
2022-08-03T23:27:04.359Z,38.24
2022-08-03T23:29:32.614Z,38.67
2022-08-03T23:32:02.751Z,38.76
2022-08-03T23:34:50.324Z,39.08
2022-08-03T23:37:19.490Z,39.20
2022-08-03T23:39:49.285Z,39.17
2022-08-03T23:42:19.293Z,38.86
2022-08-03T23:44:48.172Z,39.13
2022-08-03T23:47:16.249Z,38.55
2022-08-03T23:49:45.770Z,38.99
2022-08-03T23:52:20.158Z,38.92
2022-08-03T23:55:06.026Z,38.63
2022-08-03T23:57:44.106Z,38.75
